createdAt,value
2023-09-21T00:06:51.604Z,96951.09
2023-09-21T00:16:55.865Z,96943.47
2023-09-21T00:27:00.341Z,96939.50
2023-09-21T00:37:05.587Z,96931.47
2023-09-21T00:47:08.465Z,96921.31
2023-09-21T00:57:14.145Z,96906.91
2023-09-21T01:07:23.412Z,96899.47
2023-09-21T01:17:31.297Z,96891.41
2023-09-21T01:27:36.467Z,96882.09
2023-09-21T01:37:39.201Z,96886.03
2023-09-21T01:47:43.479Z,96872.94
2023-09-21T01:57:46.232Z,96868.88
2023-09-21T02:07:50.361Z,96854.38
2023-09-21T02:17:55.404Z,96841.59
2023-09-21T02:28:00.298Z,96832.72
2023-09-21T02:38:06.204Z,96824.59
2023-09-21T02:48:10.636Z,96809.81
2023-09-21T02:58:15.395Z,96796.63
2023-09-21T03:08:21.026Z,96790.97
2023-09-21T03:18:25.473Z,96771.91
2023-09-21T03:28:32.446Z,96759.63
2023-09-21T03:38:36.283Z,96740.34
2023-09-21T03:48:41.961Z,96731.47
2023-09-21T03:58:46.992Z,96720.31
2023-09-21T04:08:51.037Z,96716.16
2023-09-21T04:18:53.782Z,96709.34
2023-09-21T04:29:00.362Z,96712.09
2023-09-21T04:39:03.481Z,96709.78
2023-09-21T04:49:07.824Z,96704.81
2023-09-21T04:59:11.424Z,96706.09
2023-09-21T05:09:18.151Z,96697.00
2023-09-21T05:19:21.506Z,96703.53
2023-09-21T05:29:25.779Z,96705.63
2023-09-21T05:39:29.005Z,96692.09
2023-09-21T05:49:35.830Z,96693.69
2023-09-21T05:59:40.361Z,96696.19
2023-09-21T06:09:45.927Z,96704.59
2023-09-21T06:19:49.997Z,96716.72
2023-09-21T06:29:54.150Z,96711.66
2023-09-21T06:39:58.196Z,96720.25
2023-09-21T06:50:02.850Z,96707.09
2023-09-21T07:00:10.336Z,96714.09
2023-09-21T07:10:15.784Z,96715.06
2023-09-21T07:20:24.698Z,96698.44
2023-09-21T07:30:32.538Z,96704.06
2023-09-21T07:40:35.306Z,96688.78
2023-09-21T07:50:39.392Z,96683.66
2023-09-21T08:00:43.397Z,96686.72
2023-09-21T08:10:47.565Z,96698.00
2023-09-21T08:20:50.466Z,96711.75
2023-09-21T08:30:58.331Z,96673.63
2023-09-21T08:41:01.345Z,96680.28
2023-09-21T08:51:07.235Z,96684.38
2023-09-21T09:01:10.529Z,96669.19
2023-09-21T09:11:36.359Z,96663.34
2023-09-21T09:21:39.258Z,96649.72
2023-09-21T09:31:45.443Z,96649.44
2023-09-21T09:41:50.254Z,96620.75
2023-09-21T09:52:01.122Z,96611.72
2023-09-21T10:02:06.831Z,96609.03
2023-09-21T10:12:11.347Z,96598.16
2023-09-21T10:22:24.309Z,96597.19
2023-09-21T10:32:42.754Z,96593.56
2023-09-21T10:42:45.538Z,96588.81
2023-09-21T10:52:52.277Z,96580.84
2023-09-21T11:02:56.210Z,96557.50
2023-09-21T11:13:01.028Z,96544.41
2023-09-21T11:23:04.212Z,96525.69
2023-09-21T11:33:11.914Z,96515.91
2023-09-21T11:43:15.660Z,96507.16
2023-09-21T11:53:21.040Z,96492.69
2023-09-21T12:03:26.421Z,96490.88
2023-09-21T12:13:30.891Z,96461.28
2023-09-21T12:23:36.171Z,96441.56
2023-09-21T12:33:44.029Z,96435.16
2023-09-21T12:43:47.116Z,96414.00
2023-09-21T12:53:51.211Z,96400.06
2023-09-21T13:03:55.453Z,96364.97
2023-09-21T13:13:59.969Z,96356.44
2023-09-21T13:24:02.821Z,96347.91
2023-09-21T13:34:06.933Z,96334.38
2023-09-21T13:44:11.329Z,96326.63
2023-09-21T13:54:15.501Z,96312.50
2023-09-21T14:04:18.685Z,96302.22
2023-09-21T14:14:22.996Z,96290.53
2023-09-21T14:24:25.840Z,96268.53
2023-09-21T14:34:34.829Z,96255.94
2023-09-21T14:44:37.554Z,96275.81
2023-09-21T14:54:43.461Z,96274.13
2023-09-21T15:04:46.459Z,96259.06
2023-09-21T15:14:51.027Z,96243.63
2023-09-21T15:24:53.726Z,96239.31
2023-09-21T15:34:57.770Z,96241.53
2023-09-21T15:45:00.616Z,96227.97
2023-09-21T15:55:06.546Z,96208.63
2023-09-21T16:05:10.217Z,96188.50
2023-09-21T16:15:14.363Z,96169.97
2023-09-21T16:25:17.558Z,96170.91
2023-09-21T16:35:21.637Z,96153.81
2023-09-21T16:45:25.114Z,96156.63
2023-09-21T16:55:29.618Z,96146.97
2023-09-21T17:05:32.377Z,96132.34
2023-09-21T17:15:36.644Z,96122.47
2023-09-21T17:25:39.654Z,96295.81
2023-09-21T17:35:43.875Z,96324.22
2023-09-21T17:45:46.747Z,96326.88
2023-09-21T17:55:51.069Z,96319.31
2023-09-21T18:05:53.930Z,96300.81
2023-09-21T18:15:58.186Z,96310.72
2023-09-21T18:26:01.132Z,96317.75
2023-09-21T18:36:06.088Z,96344.81
2023-09-21T18:46:08.786Z,96377.44
2023-09-21T18:56:14.376Z,96396.72
2023-09-21T19:06:17.203Z,96423.53
2023-09-21T19:16:21.869Z,96408.91
2023-09-21T19:26:25.359Z,96406.53
2023-09-21T19:36:29.533Z,96405.84
2023-09-21T19:46:32.459Z,96370.69
2023-09-21T19:56:36.714Z,96375.41
2023-09-21T20:06:39.482Z,96398.31
2023-09-21T20:16:44.871Z,96398.63
2023-09-21T20:26:47.606Z,96395.88
2023-09-21T20:36:51.669Z,96416.94
2023-09-21T20:46:54.428Z,96440.38
2023-09-21T20:56:58.528Z,96460.38
2023-09-21T21:07:01.257Z,96465.91
2023-09-21T21:17:05.362Z,96487.06
2023-09-21T21:27:08.141Z,96452.81
2023-09-21T21:37:12.233Z,96483.22
2023-09-21T21:47:16.178Z,96481.38
2023-09-21T21:57:20.655Z,96500.47
2023-09-21T22:07:29.257Z,96495.88
2023-09-21T22:17:34.180Z,96476.75
2023-09-21T22:27:37.082Z,96489.66
2023-09-21T22:37:41.415Z,96475.16
2023-09-21T22:47:44.490Z,96454.88
2023-09-21T22:57:48.903Z,96474.19
2023-09-21T23:07:51.726Z,96484.56
2023-09-21T23:17:56.480Z,96489.34
2023-09-21T23:27:59.507Z,96493.16
2023-09-21T23:38:03.804Z,96498.25
2023-09-21T23:48:08.228Z,96494.75
2023-09-21T23:58:13.776Z,96518.81
